createdAt,value
2023-05-03T00:00:08.806Z,0.90
2023-05-03T00:02:40.537Z,0.90
2023-05-03T00:05:13.322Z,0.60
2023-05-03T00:07:45.558Z,0.70
2023-05-03T00:10:16.061Z,0.80
2023-05-03T00:12:44.884Z,0.70
2023-05-03T00:15:13.538Z,0.60
2023-05-03T00:17:41.856Z,0.60
2023-05-03T00:20:10.141Z,0.90
2023-05-03T00:22:38.177Z,0.70
2023-05-03T00:25:06.847Z,0.70
2023-05-03T00:27:34.928Z,0.70
2023-05-03T00:30:03.344Z,0.60
2023-05-03T00:32:31.715Z,0.88
2023-05-03T00:34:59.814Z,0.77
2023-05-03T00:37:28.307Z,0.60
2023-05-03T00:39:56.654Z,0.60
2023-05-03T00:42:24.762Z,1.17
2023-05-03T00:44:53.996Z,0.70
2023-05-03T00:47:23.842Z,0.60
2023-05-03T00:49:52.614Z,0.70
2023-05-03T00:52:20.692Z,0.90
2023-05-03T00:54:49.100Z,0.70
2023-05-03T00:57:16.935Z,1.10
2023-05-03T00:59:44.924Z,0.90
2023-05-03T01:02:12.909Z,0.65
2023-05-03T01:04:43.173Z,0.90
2023-05-03T01:07:36.394Z,0.70
2023-05-03T01:10:36.274Z,0.80
2023-05-03T01:13:07.406Z,1.23
2023-05-03T01:15:52.008Z,0.90
2023-05-03T01:18:25.965Z,0.93
2023-05-03T01:20:55.168Z,0.70
2023-05-03T01:23:48.251Z,0.73
2023-05-03T01:26:23.020Z,0.70
2023-05-03T01:28:51.158Z,0.80
2023-05-03T01:31:34.482Z,0.98
2023-05-03T01:34:17.101Z,0.90
2023-05-03T01:36:46.297Z,0.98
2023-05-03T01:39:23.277Z,1.00
2023-05-03T01:41:53.822Z,1.15
2023-05-03T01:44:23.251Z,0.95
2023-05-03T01:46:50.938Z,1.10
2023-05-03T01:49:18.400Z,1.38
2023-05-03T01:51:45.707Z,1.02
2023-05-03T01:54:13.168Z,1.25
2023-05-03T01:56:41.294Z,1.20
2023-05-03T01:59:09.393Z,1.13
2023-05-03T02:01:36.907Z,1.00
2023-05-03T02:04:04.339Z,1.10
2023-05-03T02:06:32.158Z,1.25
2023-05-03T02:09:00.685Z,1.27
2023-05-03T02:11:28.146Z,1.30
2023-05-03T02:13:55.626Z,0.90
2023-05-03T02:16:23.315Z,1.55
2023-05-03T02:18:52.134Z,1.10
2023-05-03T02:21:19.811Z,0.80
2023-05-03T02:23:47.340Z,1.63
2023-05-03T02:26:15.256Z,1.20
2023-05-03T02:28:42.782Z,1.10
2023-05-03T02:31:10.368Z,1.20
2023-05-03T02:33:38.159Z,1.38
2023-05-03T02:36:06.147Z,1.30
2023-05-03T02:38:34.055Z,1.55
2023-05-03T02:41:01.557Z,1.55
2023-05-03T02:43:31.058Z,1.50
2023-05-03T02:45:58.766Z,1.13
2023-05-03T02:48:26.901Z,1.40
2023-05-03T02:50:55.143Z,1.58
2023-05-03T02:53:22.872Z,1.65
2023-05-03T02:55:51.663Z,1.48
2023-05-03T02:58:19.281Z,1.60
2023-05-03T03:00:47.049Z,1.85
2023-05-03T03:03:16.237Z,1.52
2023-05-03T03:05:44.179Z,1.55
2023-05-03T03:08:11.644Z,2.20
2023-05-03T03:10:39.763Z,2.28
2023-05-03T03:13:07.483Z,1.65
2023-05-03T03:15:38.761Z,1.27
2023-05-03T03:18:06.633Z,2.03
2023-05-03T03:20:34.249Z,1.50
2023-05-03T03:23:01.857Z,1.70
2023-05-03T03:25:29.266Z,1.60
2023-05-03T03:27:58.649Z,1.40
2023-05-03T03:30:28.605Z,1.65
2023-05-03T03:33:06.724Z,1.70
2023-05-03T03:35:39.939Z,1.92
2023-05-03T03:38:08.120Z,1.58
2023-05-03T03:40:40.188Z,1.00
2023-05-03T03:43:07.819Z,2.08
2023-05-03T03:45:36.875Z,1.55
2023-05-03T03:48:06.313Z,1.45
2023-05-03T03:50:34.411Z,1.83
2023-05-03T03:53:02.324Z,2.22
2023-05-03T03:55:30.239Z,2.55
2023-05-03T03:57:58.454Z,1.63
2023-05-03T04:00:28.350Z,1.35
2023-05-03T04:03:07.837Z,1.58
2023-05-03T04:05:36.187Z,1.55
2023-05-03T04:08:04.003Z,1.40
2023-05-03T04:10:33.988Z,1.55
2023-05-03T04:13:01.599Z,1.92
2023-05-03T04:15:29.377Z,1.70
2023-05-03T04:17:59.457Z,1.60
2023-05-03T04:20:27.350Z,1.83
2023-05-03T04:22:55.553Z,1.33
2023-05-03T04:25:27.034Z,2.15
2023-05-03T04:28:00.213Z,1.60
2023-05-03T04:30:29.564Z,1.35
2023-05-03T04:33:01.501Z,2.42
2023-05-03T04:35:31.398Z,1.92
2023-05-03T04:38:01.889Z,1.85
2023-05-03T04:40:31.549Z,2.20
2023-05-03T04:43:07.013Z,1.50
2023-05-03T04:45:38.784Z,1.40
2023-05-03T04:48:09.541Z,1.40
2023-05-03T04:50:37.423Z,1.85
2023-05-03T04:53:07.696Z,2.28
2023-05-03T04:55:38.925Z,1.88
2023-05-03T04:58:07.050Z,1.75
2023-05-03T05:00:36.315Z,2.35
2023-05-03T05:03:10.009Z,2.50
2023-05-03T05:05:37.840Z,1.63
2023-05-03T05:08:05.600Z,2.22
2023-05-03T05:10:43.010Z,2.30
2023-05-03T05:13:14.568Z,2.80
2023-05-03T05:15:42.596Z,2.33
2023-05-03T05:18:12.172Z,3.28
2023-05-03T05:20:40.803Z,2.13
2023-05-03T05:23:09.110Z,2.15
2023-05-03T05:25:37.473Z,2.33
2023-05-03T05:28:05.376Z,2.80
2023-05-03T05:30:33.762Z,3.08
2023-05-03T05:33:03.367Z,3.58
2023-05-03T05:35:32.645Z,3.55
2023-05-03T05:38:00.364Z,3.90
2023-05-03T05:40:28.899Z,4.18
2023-05-03T05:42:58.372Z,4.15
2023-05-03T05:45:27.458Z,4.47
2023-05-03T05:47:57.494Z,4.78
2023-05-03T05:50:25.080Z,4.57
2023-05-03T05:52:57.991Z,5.82
2023-05-03T05:55:29.040Z,6.00
2023-05-03T05:57:57.620Z,5.82
2023-05-03T06:00:31.965Z,5.47
2023-05-03T06:02:59.729Z,5.60
2023-05-03T06:05:27.487Z,5.45
2023-05-03T06:07:55.148Z,5.53
2023-05-03T06:10:22.828Z,5.30
2023-05-03T06:12:53.304Z,4.57
2023-05-03T06:15:24.366Z,5.25
2023-05-03T06:17:52.113Z,4.97
2023-05-03T06:20:19.759Z,6.60
2023-05-03T06:22:49.058Z,5.47
2023-05-03T06:25:18.183Z,4.60
2023-05-03T06:27:49.198Z,4.55
2023-05-03T06:30:18.999Z,4.40
2023-05-03T06:32:48.896Z,4.07
2023-05-03T06:35:19.489Z,5.00
2023-05-03T06:37:47.156Z,4.40
2023-05-03T06:40:15.659Z,4.65
2023-05-03T06:42:43.095Z,5.07
2023-05-03T06:45:22.072Z,4.38
2023-05-03T06:47:50.503Z,4.00
2023-05-03T06:50:20.352Z,3.83
2023-05-03T06:52:52.388Z,7.20
2023-05-03T06:55:20.209Z,3.47
2023-05-03T06:57:52.498Z,4.05
2023-05-03T07:00:21.873Z,3.28
2023-05-03T07:02:49.598Z,2.78
2023-05-03T07:05:17.458Z,2.88
2023-05-03T07:07:45.171Z,2.60
2023-05-03T07:10:12.637Z,2.70
2023-05-03T07:12:40.076Z,3.60
2023-05-03T07:15:08.111Z,2.13
2023-05-03T07:17:35.563Z,3.83
2023-05-03T07:20:04.511Z,3.35
2023-05-03T07:22:32.332Z,2.55
2023-05-03T07:24:59.969Z,3.17
2023-05-03T07:27:27.734Z,2.83
2023-05-03T07:29:55.599Z,3.05
2023-05-03T07:32:23.242Z,2.92
2023-05-03T07:34:53.697Z,3.92
2023-05-03T07:37:21.677Z,2.58
2023-05-03T07:39:49.284Z,2.33
2023-05-03T07:42:16.764Z,3.50
2023-05-03T07:44:44.157Z,3.65
2023-05-03T07:47:11.619Z,3.72
2023-05-03T07:49:39.030Z,2.75
2023-05-03T07:52:06.640Z,3.65
2023-05-03T07:54:34.284Z,1.80
2023-05-03T07:57:02.109Z,3.00
2023-05-03T07:59:29.548Z,4.20
2023-05-03T08:01:57.516Z,3.45
2023-05-03T08:04:26.394Z,3.17
2023-05-03T08:06:54.295Z,2.10
2023-05-03T08:09:21.857Z,3.90
2023-05-03T08:11:49.318Z,3.05
2023-05-03T08:14:16.803Z,3.53
2023-05-03T08:16:44.180Z,2.47
2023-05-03T08:19:12.016Z,4.72
2023-05-03T08:21:39.536Z,3.45
2023-05-03T08:24:08.548Z,3.35
2023-05-03T08:26:36.468Z,3.05
2023-05-03T08:29:04.072Z,4.07
2023-05-03T08:31:31.523Z,4.28
2023-05-03T08:33:59.213Z,3.92
2023-05-03T08:36:26.692Z,4.53
2023-05-03T08:38:54.393Z,3.97
2023-05-03T08:41:30.874Z,3.85
2023-05-03T08:43:59.936Z,5.03
2023-05-03T08:46:28.847Z,4.20
2023-05-03T08:48:56.890Z,6.45
2023-05-03T08:51:25.253Z,5.45
2023-05-03T08:53:52.852Z,4.70
2023-05-03T08:56:30.823Z,5.72
2023-05-03T08:59:05.119Z,4.32
2023-05-03T09:01:32.490Z,4.53
2023-05-03T09:04:00.038Z,5.35
2023-05-03T09:06:27.654Z,5.80
2023-05-03T09:08:56.284Z,4.35
2023-05-03T09:11:25.364Z,4.95
2023-05-03T09:13:55.587Z,4.07
2023-05-03T09:16:30.383Z,4.35
2023-05-03T09:18:59.277Z,3.53
2023-05-03T09:21:26.912Z,3.30
2023-05-03T09:23:54.445Z,4.00
2023-05-03T09:26:35.893Z,3.97
2023-05-03T09:29:05.368Z,3.78
2023-05-03T09:31:34.184Z,4.72
2023-05-03T09:34:02.328Z,3.17
2023-05-03T09:36:47.302Z,3.50
2023-05-03T09:41:46.918Z,2.22
2023-05-03T09:44:14.699Z,3.78
2023-05-03T09:47:05.705Z,3.28
2023-05-03T09:49:34.116Z,3.13
2023-05-03T09:52:02.855Z,3.17
2023-05-03T09:54:31.653Z,1.90
2023-05-03T09:57:00.890Z,2.70
2023-05-03T09:59:29.175Z,2.10
2023-05-03T10:02:02.202Z,2.80
2023-05-03T10:04:36.248Z,2.95
2023-05-03T10:07:10.706Z,1.92
2023-05-03T10:09:43.208Z,2.10
2023-05-03T10:12:13.397Z,3.72
2023-05-03T10:14:46.659Z,2.35
2023-05-03T10:17:46.204Z,1.38
2023-05-03T10:20:24.563Z,2.08
2023-05-03T10:23:13.290Z,3.50
2023-05-03T10:26:11.689Z,2.50
2023-05-03T10:28:39.616Z,1.90
2023-05-03T10:31:07.507Z,2.88
2023-05-03T10:33:35.670Z,2.13
2023-05-03T10:36:11.188Z,2.10
2023-05-03T10:38:38.878Z,2.75
2023-05-03T10:41:07.246Z,2.65
2023-05-03T10:43:34.750Z,2.15
2023-05-03T10:46:03.550Z,1.85
2023-05-03T10:48:32.329Z,2.28
2023-05-03T10:51:29.102Z,2.33
2023-05-03T10:53:56.708Z,2.85
2023-05-03T10:56:24.317Z,2.22
2023-05-03T10:58:56.307Z,2.20
2023-05-03T11:01:24.999Z,1.98
2023-05-03T11:03:58.856Z,1.85
2023-05-03T11:06:41.388Z,2.33
2023-05-03T11:09:12.308Z,2.42
2023-05-03T11:11:41.329Z,2.30
2023-05-03T11:14:09.789Z,3.03
2023-05-03T11:16:40.749Z,2.90
2023-05-03T11:19:08.546Z,3.75
2023-05-03T11:21:36.646Z,2.20
2023-05-03T11:24:04.319Z,3.13
2023-05-03T11:26:39.504Z,2.33
2023-05-03T11:29:10.648Z,1.40
2023-05-03T11:31:38.335Z,2.50
2023-05-03T11:34:06.931Z,2.47
2023-05-03T11:36:35.138Z,2.47
2023-05-03T11:39:05.926Z,2.22
2023-05-03T11:41:33.692Z,2.35
2023-05-03T11:44:15.161Z,2.70
2023-05-03T11:46:46.221Z,1.70
2023-05-03T11:49:19.143Z,2.05
2023-05-03T11:51:49.873Z,1.83
2023-05-03T11:54:26.126Z,2.60
2023-05-03T11:56:59.563Z,3.47
2023-05-03T11:59:40.086Z,2.88
2023-05-03T12:02:12.074Z,3.38
2023-05-03T12:04:45.054Z,2.25
2023-05-03T12:07:16.907Z,3.13
2023-05-03T12:09:53.062Z,2.45
2023-05-03T12:12:31.964Z,3.35
2023-05-03T12:15:03.179Z,2.72
2023-05-03T12:17:43.017Z,4.38
2023-05-03T12:22:57.752Z,3.75
2023-05-03T12:25:28.901Z,2.90
2023-05-03T12:28:18.777Z,3.05
2023-05-03T12:30:48.373Z,2.25
2023-05-03T12:33:21.853Z,2.42
2023-05-03T12:35:52.791Z,2.28
2023-05-03T12:38:23.586Z,2.50
2023-05-03T12:40:53.517Z,3.65
2023-05-03T12:43:21.089Z,3.33
2023-05-03T12:46:03.943Z,3.83
2023-05-03T12:48:36.102Z,3.08
2023-05-03T12:51:18.412Z,1.88
2023-05-03T12:53:54.382Z,3.20
2023-05-03T12:56:24.700Z,4.03
2023-05-03T12:59:18.382Z,2.97
2023-05-03T13:06:43.719Z,2.35
2023-05-03T13:09:19.130Z,2.15
2023-05-03T13:11:52.427Z,3.03
2023-05-03T13:14:20.526Z,3.95
2023-05-03T13:16:52.083Z,3.13
2023-05-03T13:19:19.801Z,3.40
2023-05-03T13:21:49.031Z,3.60
2023-05-03T13:24:16.847Z,2.75
2023-05-03T13:26:44.217Z,3.80
2023-05-03T13:29:11.583Z,2.83
2023-05-03T13:31:39.127Z,4.53
2023-05-03T13:34:06.975Z,3.60
2023-05-03T13:36:34.336Z,3.92
2023-05-03T13:39:02.109Z,2.75
2023-05-03T13:41:29.528Z,3.13
2023-05-03T13:43:56.938Z,3.28
2023-05-03T13:46:24.683Z,3.97
2023-05-03T13:48:52.848Z,3.72
2023-05-03T13:51:20.320Z,5.15
2023-05-03T13:53:47.832Z,4.32
2023-05-03T13:56:19.195Z,3.20
2023-05-03T13:58:47.514Z,3.55
2023-05-03T14:01:15.516Z,3.95
2023-05-03T14:03:42.895Z,5.22
2023-05-03T14:06:10.536Z,4.20
2023-05-03T14:08:38.077Z,2.67
2023-05-03T14:11:06.413Z,3.80
2023-05-03T14:13:47.613Z,3.28
2023-05-03T14:16:35.616Z,2.95
2023-05-03T14:19:07.773Z,4.90
2023-05-03T14:21:35.278Z,4.28
2023-05-03T14:24:02.957Z,4.45
2023-05-03T14:26:30.540Z,3.30
2023-05-03T14:28:59.493Z,4.10
2023-05-03T14:31:26.933Z,3.58
2023-05-03T14:33:55.243Z,4.70
2023-05-03T14:36:23.244Z,4.53
2023-05-03T14:38:50.535Z,3.50
2023-05-03T14:41:17.875Z,4.72
2023-05-03T14:43:45.221Z,4.10
2023-05-03T14:46:12.659Z,2.20
2023-05-03T14:48:40.075Z,3.85
2023-05-03T14:51:07.462Z,3.15
2023-05-03T14:53:35.871Z,2.05
2023-05-03T14:56:05.118Z,2.72
2023-05-03T14:58:33.236Z,2.63
2023-05-03T15:01:01.533Z,3.63
2023-05-03T15:03:29.205Z,2.08
2023-05-03T15:05:56.789Z,2.08
2023-05-03T15:08:24.224Z,1.40
2023-05-03T15:10:52.550Z,1.98
2023-05-03T15:13:20.105Z,2.22
2023-05-03T15:15:48.160Z,2.30
2023-05-03T15:18:18.459Z,2.88
2023-05-03T15:20:46.785Z,1.95
2023-05-03T15:23:14.030Z,1.40
2023-05-03T15:25:41.520Z,1.23
2023-05-03T15:28:08.948Z,1.23
2023-05-03T15:30:36.358Z,1.80
2023-05-03T15:33:04.460Z,1.20
2023-05-03T15:35:32.437Z,1.00
2023-05-03T15:37:59.652Z,1.25
2023-05-03T15:40:27.600Z,1.02
2023-05-03T15:42:55.958Z,0.80
2023-05-03T15:45:26.173Z,1.15
2023-05-03T15:47:54.205Z,1.33
2023-05-03T15:50:21.849Z,1.27
2023-05-03T15:52:49.177Z,1.40
2023-05-03T15:55:17.626Z,1.35
2023-05-03T15:57:45.904Z,1.52
2023-05-03T16:00:17.742Z,1.05
2023-05-03T16:02:45.072Z,1.35
2023-05-03T16:05:12.692Z,1.65
2023-05-03T16:07:40.511Z,1.77
2023-05-03T16:10:09.562Z,1.52
2023-05-03T16:12:37.735Z,1.00
2023-05-03T16:15:05.578Z,1.05
2023-05-03T16:17:35.836Z,0.98
2023-05-03T16:20:08.110Z,1.20
2023-05-03T16:22:35.501Z,1.00
2023-05-03T16:25:03.177Z,1.95
2023-05-03T16:27:30.901Z,1.85
2023-05-03T16:29:58.774Z,1.15
2023-05-03T16:32:26.490Z,1.27
2023-05-03T16:34:53.889Z,0.75
2023-05-03T16:37:21.925Z,1.00
2023-05-03T16:39:49.275Z,1.00
2023-05-03T16:42:17.413Z,1.55
2023-05-03T16:44:45.208Z,2.40
2023-05-03T16:47:12.673Z,2.22
2023-05-03T16:49:40.697Z,1.52
2023-05-03T16:52:10.113Z,2.35
2023-05-03T16:54:38.211Z,1.80
2023-05-03T16:57:05.597Z,2.28
2023-05-03T16:59:33.200Z,1.30
2023-05-03T17:02:01.660Z,2.00
2023-05-03T17:04:29.521Z,3.00
2023-05-03T17:06:56.995Z,2.30
2023-05-03T17:09:24.467Z,1.65
2023-05-03T17:11:52.869Z,2.30
2023-05-03T17:14:21.653Z,2.85
2023-05-03T17:16:49.490Z,2.25
2023-05-03T17:19:18.352Z,2.60
2023-05-03T17:21:46.052Z,2.95
2023-05-03T17:24:13.736Z,3.80
2023-05-03T17:26:41.494Z,3.95
2023-05-03T17:29:09.007Z,5.07
2023-05-03T17:31:36.493Z,3.58
2023-05-03T17:34:04.018Z,3.70
2023-05-03T17:36:31.691Z,3.20
2023-05-03T17:38:59.766Z,4.22
2023-05-03T17:41:27.544Z,3.67
2023-05-03T17:43:55.437Z,2.85
2023-05-03T17:46:23.672Z,3.58
2023-05-03T17:48:52.337Z,2.40
2023-05-03T17:51:19.928Z,5.07
2023-05-03T17:53:47.573Z,3.13
2023-05-03T17:56:17.618Z,3.13
2023-05-03T17:58:45.617Z,2.83
2023-05-03T18:01:13.811Z,4.13
2023-05-03T18:03:44.648Z,2.78
2023-05-03T18:06:13.718Z,3.13
2023-05-03T18:08:41.811Z,3.58
2023-05-03T18:11:11.715Z,3.15
2023-05-03T18:13:40.392Z,2.33
2023-05-03T18:16:08.988Z,1.90
2023-05-03T18:18:36.750Z,1.98
2023-05-03T18:21:05.393Z,2.63
2023-05-03T18:23:33.657Z,3.30
2023-05-03T18:26:01.174Z,2.03
2023-05-03T18:28:28.533Z,2.92
2023-05-03T18:30:56.223Z,2.67
2023-05-03T18:33:23.964Z,1.83
2023-05-03T18:35:52.916Z,2.72
2023-05-03T18:38:25.167Z,2.10
2023-05-03T18:40:54.876Z,2.58
2023-05-03T18:43:22.280Z,1.98
2023-05-03T18:45:50.241Z,2.30
2023-05-03T18:48:18.111Z,1.92
2023-05-03T18:50:45.875Z,1.70
2023-05-03T18:53:14.184Z,2.28
2023-05-03T18:55:42.522Z,2.03
2023-05-03T18:58:10.169Z,1.60
2023-05-03T19:00:37.832Z,1.50
2023-05-03T19:03:06.235Z,1.13
2023-05-03T19:05:33.854Z,1.67
2023-05-03T19:08:01.341Z,1.70
2023-05-03T19:10:28.779Z,1.90
2023-05-03T19:12:57.448Z,1.15
2023-05-03T19:15:25.407Z,1.50
2023-05-03T19:17:53.302Z,1.42
2023-05-03T19:20:21.375Z,1.20
2023-05-03T19:22:49.135Z,1.48
2023-05-03T19:25:16.886Z,1.48
2023-05-03T19:27:44.653Z,1.17
2023-05-03T19:30:12.844Z,1.67
2023-05-03T19:32:40.493Z,1.42
2023-05-03T19:35:08.988Z,1.50
2023-05-03T19:37:36.926Z,1.70
2023-05-03T19:40:06.877Z,2.08
2023-05-03T19:42:37.355Z,1.50
2023-05-03T19:45:06.097Z,1.70
2023-05-03T19:47:33.881Z,1.70
2023-05-03T19:50:01.816Z,1.30
2023-05-03T19:52:30.087Z,0.95
2023-05-03T19:54:57.928Z,1.30
2023-05-03T19:57:25.954Z,1.90
2023-05-03T19:59:53.877Z,1.55
2023-05-03T20:02:24.146Z,1.90
2023-05-03T20:04:52.727Z,0.93
2023-05-03T20:07:20.604Z,1.67
2023-05-03T20:09:49.303Z,1.58
2023-05-03T20:12:17.397Z,1.33
2023-05-03T20:14:45.175Z,1.60
2023-05-03T20:17:13.508Z,1.27
2023-05-03T20:19:41.025Z,2.20
2023-05-03T20:22:08.636Z,1.40
2023-05-03T20:24:36.441Z,1.40
2023-05-03T20:27:04.361Z,1.35
2023-05-03T20:29:32.386Z,1.48
2023-05-03T20:32:00.469Z,1.17
2023-05-03T20:34:28.731Z,1.38
2023-05-03T20:36:56.647Z,2.08
2023-05-03T20:39:24.608Z,1.50
2023-05-03T20:41:52.305Z,1.90
2023-05-03T20:44:20.862Z,1.65
2023-05-03T20:46:48.831Z,1.63
2023-05-03T20:49:16.699Z,1.50
2023-05-03T20:51:44.792Z,1.60
2023-05-03T20:54:12.537Z,1.27
2023-05-03T20:56:40.416Z,2.17
2023-05-03T20:59:08.385Z,2.83
2023-05-03T21:01:40.487Z,1.20
2023-05-03T21:04:08.200Z,1.45
2023-05-03T21:06:38.335Z,1.80
2023-05-03T21:09:06.385Z,1.50
2023-05-03T21:11:34.381Z,1.92
2023-05-03T21:14:02.373Z,1.10
2023-05-03T21:16:30.829Z,1.65
2023-05-03T21:18:58.783Z,1.65
2023-05-03T21:21:27.335Z,1.60
2023-05-03T21:23:55.408Z,1.85
2023-05-03T21:26:23.480Z,1.65
2023-05-03T21:28:51.713Z,2.83
2023-05-03T21:31:19.688Z,2.00
2023-05-03T21:33:50.055Z,1.48
2023-05-03T21:36:17.969Z,1.70
2023-05-03T21:38:46.018Z,2.00
2023-05-03T21:41:14.138Z,1.50
2023-05-03T21:43:42.433Z,1.50
2023-05-03T21:46:10.836Z,1.23
2023-05-03T21:48:40.548Z,1.17
2023-05-03T21:51:08.912Z,1.45
2023-05-03T21:53:37.275Z,1.00
2023-05-03T21:56:05.271Z,1.35
2023-05-03T21:58:33.376Z,1.30
2023-05-03T22:01:01.848Z,1.40
2023-05-03T22:03:29.585Z,1.23
2023-05-03T22:05:57.922Z,1.23
2023-05-03T22:08:25.832Z,1.42
2023-05-03T22:10:55.817Z,1.52
2023-05-03T22:13:23.905Z,1.65
2023-05-03T22:15:51.971Z,1.67
2023-05-03T22:18:19.710Z,1.50
2023-05-03T22:20:47.865Z,1.13
2023-05-03T22:23:16.246Z,1.20
2023-05-03T22:25:44.026Z,1.20
2023-05-03T22:28:12.228Z,1.90
2023-05-03T22:30:40.056Z,2.03
2023-05-03T22:33:08.361Z,1.45
2023-05-03T22:35:36.860Z,2.35
2023-05-03T22:38:05.542Z,1.27
2023-05-03T22:40:33.949Z,1.40
2023-05-03T22:43:02.197Z,1.65
2023-05-03T22:45:30.162Z,1.58
2023-05-03T22:47:58.198Z,1.90
2023-05-03T22:50:26.395Z,1.77
2023-05-03T22:52:54.150Z,1.50
2023-05-03T22:55:22.058Z,2.17
2023-05-03T22:57:50.130Z,2.58
2023-05-03T23:00:18.018Z,2.03
2023-05-03T23:02:45.829Z,2.75
2023-05-03T23:05:13.842Z,1.92
2023-05-03T23:07:43.444Z,1.98
2023-05-03T23:10:11.542Z,2.80
2023-05-03T23:12:39.451Z,2.17
2023-05-03T23:15:07.870Z,2.83
2023-05-03T23:17:35.756Z,3.38
2023-05-03T23:20:06.088Z,3.42
2023-05-03T23:22:34.303Z,2.65
2023-05-03T23:25:02.432Z,2.88
2023-05-03T23:27:30.402Z,2.15
2023-05-03T23:29:58.860Z,2.78
2023-05-03T23:32:27.295Z,1.88
2023-05-03T23:34:56.030Z,1.92
2023-05-03T23:37:23.782Z,3.45
2023-05-03T23:39:52.257Z,2.90
2023-05-03T23:42:20.654Z,2.22
2023-05-03T23:44:54.976Z,1.88
2023-05-03T23:47:23.956Z,2.28
2023-05-03T23:49:52.256Z,1.73
2023-05-03T23:52:20.776Z,1.85
2023-05-03T23:54:48.608Z,3.10
2023-05-03T23:57:16.488Z,3.10
2023-05-03T23:59:44.558Z,2.72
